Time;durP1;ratioP1;P1;durP2;ratioP2;P2;SDS_P1;SDS_P2;PMS_P1;PMS_P2;Temp;Humidity;BMP_temperature;BMP_pressure;BME280_temperature;BME280_humidity;BME280_pressure;Samples;Min_cycle;Max_cycle;Signal;HPM_P1;HPM_P2
2021/10/25 00:01:07;;;;;;;17.48;9.82;;;128.70;2252.80;;;;;;4826068;29;20038;-84
2021/10/25 00:03:40;;;;;;;16.15;10.02;;;128.80;2252.80;;;;;;4825797;29;20045;-85
2021/10/25 00:06:07;;;;;;;21.00;12.05;;;153.70;2252.80;;;;;;4824583;29;20073;-85
2021/10/25 00:08:46;;;;;;;22.02;12.60;;;128.70;2252.80;;;;;;4826062;29;20068;-84
2021/10/25 00:11:20;;;;;;;16.15;10.98;;;128.40;2252.80;;;;;;4826528;29;20030;-85
2021/10/25 00:14:12;;;;;;;19.83;12.30;;;128.30;2252.80;;;;;;4840360;29;20106;-85
2021/10/25 00:16:45;;;;;;;18.90;11.30;;;128.30;2252.80;;;;;;4810013;29;20061;-85
2021/10/25 00:19:34;;;;;;;16.77;10.50;;;128.10;2252.80;;;;;;4812934;29;20074;-85
2021/10/25 00:22:08;;;;;;;17.90;10.50;;;128.00;2252.80;;;;;;4825537;29;20042;-85
2021/10/25 00:24:49;;;;;;;17.30;10.88;;;128.20;2252.80;;;;;;4824707;29;20047;-86
2021/10/25 00:27:17;;;;;;;19.65;10.32;;;128.20;2252.80;;;;;;4809303;29;20039;-85
2021/10/25 00:29:58;;;;;;;17.48;11.05;;;128.20;2252.80;;;;;;4822998;29;20035;-86
2021/10/25 00:32:29;;;;;;;22.08;11.98;;;128.10;2252.80;;;;;;4824942;29;20038;-85
2021/10/25 00:35:21;;;;;;;22.60;11.63;;;128.10;2252.80;;;;;;4809358;29;20057;-86
2021/10/25 00:38:10;;;;;;;23.27;11.15;;;128.10;2252.80;;;;;;4825630;29;20047;-87
2021/10/25 00:40:48;;;;;;;17.00;10.15;;;128.00;2252.80;;;;;;4812178;29;20051;-85
2021/10/25 00:43:17;;;;;;;;;;;128.00;2252.80;;;;;;4795503;29;20046;-86
2021/10/25 00:45:49;;;;;;;18.02;10.25;;;103.30;2227.20;;;;;;4826489;29;19924;-87
2021/10/25 00:48:39;;;;;;;15.63;9.57;;;128.00;2252.80;;;;;;4782700;29;20099;-85
2021/10/25 00:51:29;;;;;;;25.90;10.13;;;128.10;2252.80;;;;;;4826051;29;20039;-86
2021/10/25 00:54:01;;;;;;;17.38;10.50;;;128.00;2252.80;;;;;;4827974;29;20038;-89
2021/10/25 00:56:31;;;;;;;15.85;10.95;;;128.00;2252.80;;;;;;4825711;29;20038;-86
2021/10/25 00:59:17;;;;;;;19.13;10.60;;;128.00;2252.80;;;;;;4825030;29;20076;-85
2021/10/25 01:01:54;;;;;;;16.48;9.68;;;103.30;2227.20;;;;;;4825587;29;20094;-86
2021/10/25 01:04:25;;;;;;;16.00;9.60;;;103.30;2227.20;;;;;;4807345;30;20062;-86
2021/10/25 01:07:13;;;;;;;16.40;10.00;;;128.20;2252.80;;;;;;4805610;30;20092;-85
2021/10/25 01:09:44;;;;;;;14.25;9.50;;;128.30;2252.80;;;;;;4790493;30;20044;-85
2021/10/25 01:12:11;;;;;;;17.73;10.27;;;128.50;2252.80;;;;;;4790816;30;20055;-86
2021/10/25 01:14:42;;;;;;;18.58;9.38;;;154.30;2227.20;;;;;;4804701;30;20573;-85
2021/10/25 01:17:11;;;;;;;15.98;9.43;;;128.70;2201.60;;;;;;4804417;30;20046;-87
2021/10/25 01:19:44;;;;;;;16.13;9.63;;;128.50;2252.80;;;;;;4804734;30;20123;-85
2021/10/25 01:22:21;;;;;;;19.20;9.93;;;128.30;2252.80;;;;;;4790181;30;20111;-86
2021/10/25 01:24:54;;;;;;;16.30;8.85;;;128.20;2252.80;;;;;;4805696;30;20629;-87
2021/10/25 01:27:38;;;;;;;19.00;9.83;;;128.30;2252.80;;;;;;4788895;30;20039;-85
2021/10/25 01:30:08;;;;;;;;;;;128.30;2252.80;;;;;;4805429;30;20341;-85
2021/10/25 01:32:35;;;;;;;19.08;9.57;;;128.20;2252.80;;;;;;4805031;29;19988;-85
2021/10/25 01:35:06;;;;;;;16.23;9.95;;;128.20;2252.80;;;;;;4803816;29;20068;-85
2021/10/25 01:37:34;;;;;;;15.90;10.23;;;128.20;2252.80;;;;;;4804196;30;20039;-85
2021/10/25 01:40:03;;;;;;;18.73;9.80;;;128.30;2252.80;;;;;;4759438;30;20050;-86
2021/10/25 01:42:31;;;;;;;19.88;10.57;;;128.40;2252.80;;;;;;4789886;30;20031;-85
2021/10/25 01:45:01;;;;;;;18.25;10.55;;;128.30;2252.80;;;;;;4789804;30;20043;-85
2021/10/25 01:47:33;;;;;;;19.30;10.52;;;103.30;2227.20;;;;;;4809602;29;20047;-86
2021/10/25 01:50:32;;;;;;;17.77;10.32;;;128.30;2252.80;;;;;;4823266;29;20034;-86
2021/10/25 01:53:06;;;;;;;19.20;9.73;;;128.30;2252.80;;;;;;4823970;29;20064;-85
2021/10/25 01:55:33;;;;;;;16.83;9.35;;;103.20;2227.20;;;;;;4822156;29;20031;-84
2021/10/25 01:58:01;;;;;;;15.02;9.18;;;128.20;2252.80;;;;;;4821485;29;20039;-84
2021/10/25 02:00:35;;;;;;;16.75;9.38;;;128.20;2252.80;;;;;;4807487;29;20061;-84
2021/10/25 02:03:55;;;;;;;18.20;9.23;;;128.10;2252.80;;;;;;4824197;29;20038;-88
2021/10/25 02:06:32;;;;;;;13.82;8.70;;;128.10;2252.80;;;;;;4757498;30;20026;-88
2021/10/25 02:09:02;;;;;;;13.65;9.27;;;128.20;2252.80;;;;;;4770046;30;20043;-85
2021/10/25 02:11:30;;;;;;;14.13;8.25;;;128.20;2252.80;;;;;;4768684;30;20048;-85
2021/10/25 02:13:58;;;;;;;13.55;8.48;;;102.60;2227.20;;;;;;4768513;30;20083;-85
2021/10/25 02:16:32;;;;;;;14.07;8.67;;;128.10;2252.80;;;;;;4768744;30;20048;-85
2021/10/25 02:19:36;;;;;;;11.43;7.97;;;128.10;2252.80;;;;;;4772622;30;20055;-87
2021/10/25 02:22:06;;;;;;;12.80;7.60;;;128.10;2252.80;;;;;;4769690;30;20036;-87
2021/10/25 02:24:35;;;;;;;18.55;9.23;;;128.10;2252.80;;;;;;4771469;30;20130;-87
2021/10/25 02:27:10;;;;;;;14.68;8.20;;;128.10;2252.80;;;;;;4757547;30;20095;-87
2021/10/25 02:29:58;;;;;;;14.73;7.75;;;128.10;2252.80;;;;;;4757721;30;20044;-86
2021/10/25 02:32:30;;;;;;;16.83;9.00;;;103.00;2227.20;;;;;;4771042;30;20070;-87
2021/10/25 02:44:20;;;;;;;18.52;8.55;;;128.20;2227.20;;;;;;4993760;24;20046;-87
2021/10/25 02:47:08;;;;;;;14.82;8.38;;;128.20;2201.60;;;;;;4825345;29;20111;-88
2021/10/25 02:49:51;;;;;;;12.43;8.80;;;128.20;2227.20;;;;;;4826926;29;20014;-85
2021/10/25 02:52:19;;;;;;;16.17;8.05;;;128.10;2227.20;;;;;;4823816;29;20094;-86
2021/10/25 02:55:00;;;;;;;18.02;9.63;;;128.00;2252.80;;;;;;4808988;29;20058;-85
2021/10/25 02:57:58;;;;;;;18.23;8.52;;;128.10;2252.80;;;;;;4824827;29;20031;-85
2021/10/25 03:00:26;;;;;;;12.75;8.20;;;128.10;2227.20;;;;;;4825125;29;20041;-85
2021/10/25 03:02:57;;;;;;;16.15;9.20;;;128.10;2227.20;;;;;;4828049;29;20026;-86
2021/10/25 03:05:28;;;;;;;19.30;8.65;;;128.10;2201.60;;;;;;4810605;29;20039;-85
2021/10/25 03:07:55;;;;;;;16.75;9.18;;;128.00;2227.20;;;;;;4827472;29;20034;-85
2021/10/25 03:10:29;;;;;;;14.27;9.07;;;128.20;2227.20;;;;;;4811346;29;20027;-86
2021/10/25 03:12:57;;;;;;;17.00;9.50;;;128.00;2227.20;;;;;;4827912;29;20054;-86
2021/10/25 03:15:32;;;;;;;18.98;9.55;;;128.00;2227.20;;;;;;4826806;29;20042;-85
2021/10/25 03:17:59;;;;;;;20.75;10.05;;;103.30;2201.60;;;;;;4825005;29;20043;-85
2021/10/25 03:20:30;;;;;;;15.52;9.32;;;103.30;2227.20;;;;;;4827005;29;20039;-85
2021/10/25 03:23:05;;;;;;;17.08;10.02;;;103.30;2227.20;;;;;;4826652;29;20050;-85
2021/10/25 03:25:34;;;;;;;17.60;9.75;;;103.30;2227.20;;;;;;4827054;29;20118;-85
2021/10/25 03:28:05;;;;;;;17.75;9.68;;;103.30;2227.20;;;;;;4811265;29;20519;-85
2021/10/25 03:30:32;;;;;;;18.30;10.43;;;103.30;2227.20;;;;;;4825903;29;20031;-85
2021/10/25 03:33:16;;;;;;;17.37;9.83;;;103.30;2227.20;;;;;;4811430;29;20050;-85
2021/10/25 03:35:46;;;;;;;16.92;10.00;;;103.30;2201.60;;;;;;4811424;29;20031;-85
2021/10/25 03:38:15;;;;;;;22.58;10.52;;;103.30;2227.20;;;;;;4811589;29;20080;-85
2021/10/25 03:43:59;;;;;;;17.02;9.60;;;103.10;2227.20;;;;;;4828404;29;20054;-86
2021/10/25 03:46:53;;;;;;;20.15;10.63;;;103.10;2227.20;;;;;;4811310;29;20093;-86
2021/10/25 03:52:02;;;;;;;20.50;10.57;;;103.20;2227.20;;;;;;4825517;29;20043;-86
2021/10/25 03:54:50;;;;;;;16.02;9.80;;;103.10;2227.20;;;;;;4809212;29;20060;-84
2021/10/25 03:57:44;;;;;;;19.98;10.45;;;103.10;2227.20;;;;;;4824268;29;20051;-85
2021/10/25 04:29:59;;;;;;;34.33;19.58;;;102.90;2227.20;;;;;;4789652;30;20067;-85
2021/10/25 04:32:52;;;;;;;28.43;13.70;;;102.90;2227.20;;;;;;4788616;30;20028;-85
2021/10/25 04:35:26;;;;;;;43.47;18.58;;;102.90;2227.20;;;;;;4759866;30;20481;-85
2021/10/25 04:38:01;;;;;;;38.83;17.23;;;102.90;2227.20;;;;;;4791244;30;20036;-85
2021/10/25 04:40:30;;;;;;;31.17;16.08;;;102.90;2227.20;;;;;;4774916;30;20054;-85
2021/10/25 04:43:03;;;;;;;36.17;17.98;;;102.80;2227.20;;;;;;4789684;30;20032;-85
2021/10/25 04:45:37;;;;;;;34.80;17.50;;;102.80;2227.20;;;;;;4789183;30;20054;-85
2021/10/25 04:51:56;;;;;;;28.10;15.97;;;102.80;2227.20;;;;;;4794098;30;20023;-87
2021/10/25 04:54:46;;;;;;;52.75;37.53;;;102.80;2227.20;;;;;;4757713;30;20017;-88
2021/10/25 05:00:39;;;;;;;41.63;24.73;;;102.80;2227.20;;;;;;4757699;30;20055;-87
2021/10/25 05:03:15;;;;;;;50.55;26.85;;;102.70;2227.20;;;;;;4753196;30;20109;-85
2021/10/25 05:05:58;;;;;;;92.82;50.83;;;102.70;2227.20;;;;;;4733796;30;20048;-86
2021/10/25 05:08:32;;;;;;;53.80;33.77;;;102.70;2227.20;;;;;;4741946;30;20045;-85
2021/10/25 05:11:21;;;;;;;34.00;24.13;;;102.70;2227.20;;;;;;4764587;30;20047;-84
2021/10/25 05:13:53;;;;;;;33.50;21.05;;;102.60;2227.20;;;;;;4770441;30;20049;-85
2021/10/25 05:16:23;;;;;;;36.10;20.17;;;102.60;2227.20;;;;;;4753886;30;20036;-83
2021/10/25 05:18:54;;;;;;;27.47;17.23;;;102.60;2227.20;;;;;;4739280;30;20197;-85
2021/10/25 05:21:44;;;;;;;28.30;15.98;;;102.70;2227.20;;;;;;4740230;30;20029;-85
2021/10/25 05:24:16;;;;;;;27.42;15.70;;;102.60;2227.20;;;;;;4753117;30;20040;-85
2021/10/25 05:26:44;;;;;;;37.47;17.17;;;102.60;2227.20;;;;;;4753537;30;20029;-83
2021/10/25 05:29:11;;;;;;;26.60;16.23;;;102.60;2227.20;;;;;;4750753;30;20041;-81
2021/10/25 05:31:37;;;;;;;28.83;15.17;;;102.60;2227.20;;;;;;4780121;29;20050;-83
2021/10/25 05:34:04;;;;;;;26.97;15.37;;;102.60;2227.20;;;;;;4807731;29;20038;-83
2021/10/25 05:36:31;;;;;;;30.37;16.13;;;102.60;2227.20;;;;;;4808241;29;20031;-82
2021/10/25 05:38:57;;;;;;;23.60;13.40;;;102.60;2227.20;;;;;;4806616;29;20066;-81
2021/10/25 05:41:27;;;;;;;31.55;17.38;;;102.60;2227.20;;;;;;4806752;29;20471;-83
2021/10/25 05:44:07;;;;;;;24.17;15.45;;;102.60;2227.20;;;;;;4807918;29;20034;-83
2021/10/25 05:46:34;;;;;;;24.20;14.87;;;102.60;2227.20;;;;;;4808374;29;20389;-84
2021/10/25 05:49:00;;;;;;;28.83;16.43;;;77.70;2227.20;;;;;;4793732;29;20035;-83
2021/10/25 05:51:26;;;;;;;28.20;17.47;;;102.60;2227.20;;;;;;4808475;29;20045;-83
2021/10/25 05:53:59;;;;;;;36.43;18.73;;;77.30;2227.20;;;;;;4794243;29;20034;-85
2021/10/25 05:56:34;;;;;;;28.77;17.30;;;102.70;2227.20;;;;;;4805207;30;20749;-86
2021/10/25 06:01:41;;;;;;;75.97;39.92;;;102.80;2227.20;;;;;;4870876;24;20063;-85
2021/10/25 06:19:39;;;;;;;40.97;26.77;;;103.00;2227.20;;;;;;2468512;24;20333;-83
2021/10/25 06:22:10;;;;;;;34.15;22.02;;;103.10;2227.20;;;;;;4804407;30;20054;-83
2021/10/25 06:24:40;;;;;;;37.90;22.55;;;103.20;2227.20;;;;;;4806267;30;20043;-83
2021/10/25 06:27:23;;;;;;;32.05;21.88;;;103.20;2227.20;;;;;;4790531;30;20055;-84
2021/10/25 06:30:16;;;;;;;35.38;21.50;;;103.30;2227.20;;;;;;4790614;30;20039;-83
2021/10/25 06:32:47;;;;;;;33.60;21.23;;;128.00;2252.80;;;;;;4776832;30;20043;-84
2021/10/25 06:35:16;;;;;;;36.47;20.25;;;128.00;2252.80;;;;;;4790985;30;20043;-83
2021/10/25 06:37:55;;;;;;;51.07;33.20;;;128.10;2252.80;;;;;;4792829;30;20028;-83
2021/10/25 06:40:23;;;;;;;55.88;30.95;;;128.10;2252.80;;;;;;4792909;30;20042;-82
2021/10/25 06:42:51;;;;;;;58.97;24.15;;;128.30;2252.80;;;;;;4792658;30;20094;-84
2021/10/25 06:45:31;;;;;;;63.13;20.75;;;128.30;2252.80;;;;;;4796146;30;20038;-89
2021/10/25 06:50:42;;;;;;;35.20;18.75;;;128.60;2252.80;;;;;;5317285;24;20034;-57
2021/10/25 06:53:08;;;;;;;40.25;19.65;;;128.70;2252.80;;;;;;4809040;29;20571;-59
2021/10/25 06:55:35;;;;;;;29.15;19.52;;;128.80;2252.80;;;;;;4808763;29;20144;-57
2021/10/25 06:58:02;;;;;;;32.15;21.88;;;153.60;2252.80;;;;;;4807374;29;20039;-59
2021/10/25 07:00:28;;;;;;;41.45;21.73;;;153.60;2252.80;;;;;;4807409;29;20117;-60
2021/10/25 07:02:54;;;;;;;37.08;22.02;;;153.90;2252.80;;;;;;4807342;29;20502;-59
2021/10/25 07:05:21;;;;;;;31.65;19.45;;;153.80;2252.80;;;;;;4807753;29;20035;-59
2021/10/25 07:07:47;;;;;;;34.45;18.92;;;153.90;2252.80;;;;;;4803592;29;20033;-61
2021/10/25 07:10:13;;;;;;;39.67;19.63;;;154.20;2252.80;;;;;;4808642;29;20035;-59
2021/10/25 07:12:39;;;;;;;60.88;19.05;;;154.40;2252.80;;;;;;4808411;29;20034;-59
2021/10/25 07:15:06;;;;;;;33.42;19.10;;;179.20;2252.80;;;;;;4792658;29;20030;-59
2021/10/25 07:17:45;;;;;;;36.17;21.13;;;179.30;2252.80;;;;;;4809162;29;20041;-61
2021/10/25 07:20:42;;;;;;;40.15;20.70;;;179.40;2252.80;;;;;;4809039;29;20135;-59
2021/10/25 08:09:12;;;;;;;30.92;19.05;;;256.60;2048.00;;;;;;4814702;29;20113;-59
2021/10/25 08:12:02;;;;;;;210.60;32.47;;;281.60;2022.40;;;;;;4812687;29;20027;-58
2021/10/25 08:14:31;;;;;;;44.50;22.30;;;282.10;1971.20;;;;;;4815118;29;20488;-58
2021/10/25 08:16:57;;;;;;;37.33;17.17;;;307.20;1945.60;;;;;;4812211;29;20038;-57
2021/10/25 08:22:11;;;;;;;43.85;24.52;;;384.10;1638.40;;;;;;4816034;29;20395;-59
2021/10/25 08:24:40;;;;;;;23.73;13.93;;;461.50;1356.80;;;;;;4816581;29;20022;-59
2021/10/25 08:27:08;;;;;;;27.92;17.83;;;512.90;1152.00;;;;;;4815830;29;20026;-59
2021/10/25 08:29:34;;;;;;;33.50;12.80;;;;;;;;;;4814384;29;20033;-60
2021/10/25 08:34:43;;;;;;;23.00;10.98;;;615.20;921.60;;;;;;4816080;29;20030;-58
2021/10/25 08:39:53;;;;;;;22.13;12.30;;;665.60;870.40;;;;;;4814077;29;20035;-66
2021/10/25 08:42:29;;;;;;;18.50;11.13;;;666.40;819.20;;;;;;4812150;29;20015;-62
2021/10/25 08:44:58;;;;;;;45.63;25.65;;;692.00;793.60;;;;;;4814118;29;20019;-65
2021/10/25 08:47:34;;;;;;;43.35;18.10;;;717.20;793.60;;;;;;4798815;29;20032;-61
2021/10/25 08:50:03;;;;;;;24.05;14.10;;;717.20;793.60;;;;;;4815741;29;20498;-62
2021/10/25 08:52:29;;;;;;;13.63;11.63;;;;;;;;;;4815315;29;20054;-61
2021/10/25 08:54:55;;;;;;;34.90;15.32;;;;;;;;;;4813628;29;20027;-60
2021/10/25 08:57:23;;;;;;;19.90;13.00;;;768.10;768.00;;;;;;4815018;29;20026;-58
2021/10/25 09:00:00;;;;;;;60.20;28.75;;;793.90;742.40;;;;;;4815286;29;20487;-59
2021/10/25 09:02:28;;;;;;;28.63;14.70;;;768.90;716.80;;;;;;4809383;29;20023;-65
2021/10/25 09:05:07;;;;;;;14.82;9.40;;;793.70;742.40;;;;;;4814652;29;20034;-60
2021/10/25 09:07:54;;;;;;;15.95;9.45;;;819.30;665.60;;;;;;4814827;29;20022;-61
2021/10/25 09:10:31;;;;;;;15.48;10.27;;;794.40;691.20;;;;;;4811324;29;20110;-65
2021/10/25 09:12:59;;;;;;;32.17;15.55;;;819.70;742.40;;;;;;4812887;29;20026;-58
2021/10/25 09:15:29;;;;;;;30.40;14.90;;;;;;;;;;4813440;29;20026;-61
2021/10/25 09:18:05;;;;;;;24.90;16.00;;;844.90;640.00;;;;;;4814818;29;20029;-58
2021/10/25 09:20:31;;;;;;;23.02;12.52;;;845.00;640.00;;;;;;4814588;29;20027;-57
2021/10/25 09:23:11;;;;;;;21.38;12.60;;;845.40;640.00;;;;;;4812798;29;20098;-66
2021/10/25 09:25:38;;;;;;;21.95;12.05;;;870.50;614.40;;;;;;4812564;29;20035;-58
2021/10/25 09:28:25;;;;;;;24.10;17.73;;;870.40;640.00;;;;;;4813965;29;20102;-59
2021/10/25 09:31:00;;;;;;;32.17;23.70;;;870.50;614.40;;;;;;4813796;29;20057;-58
2021/10/25 09:33:38;;;;;;;34.45;24.70;;;870.40;614.40;;;;;;4812081;29;20103;-58
2021/10/25 09:36:09;;;;;;;19.50;12.95;;;871.00;563.20;;;;;;4811751;29;20026;-58
2021/10/25 09:49:15;;;;;;;19.45;11.48;;;615.30;870.40;;;;;;4814225;29;20548;-65
2021/10/25 09:51:52;;;;;;;18.50;10.85;;;589.00;972.80;;;;;;4812688;29;20043;-61
2021/10/25 09:54:23;;;;;;;14.00;9.27;;;563.40;1024.00;;;;;;4810000;29;20067;-58
2021/10/25 09:59:53;;;;;;;15.02;9.60;;;512.10;1100.80;;;;;;4809009;29;20090;-58
2021/10/25 10:02:21;;;;;;;14.98;9.13;;;486.50;1152.00;;;;;;4810120;29;20022;-57
2021/10/25 10:04:51;;;;;;;74.80;14.48;;;461.10;1254.40;;;;;;4812782;29;20031;-67
2021/10/25 10:07:18;;;;;;;27.95;11.48;;;461.30;1228.80;;;;;;4814156;29;20022;-57
2021/10/25 10:09:47;;;;;;;17.65;8.65;;;461.10;1254.40;;;;;;4813512;29;20039;-57
2021/10/25 10:12:18;;;;;;;16.98;8.80;;;460.90;1280.00;;;;;;4816005;29;20087;-65
2021/10/25 10:14:48;;;;;;;12.90;8.55;;;461.60;1228.80;;;;;;4814721;29;20480;-58
2021/10/25 10:17:33;;;;;;;19.92;9.38;;;512.40;1100.80;;;;;;4815836;29;20031;-67
2021/10/25 10:20:06;;;;;;;17.48;8.40;;;563.60;1049.60;;;;;;4812301;29;20070;-59
2021/10/25 10:22:39;;;;;;;16.90;9.30;;;563.70;972.80;;;;;;4815963;29;20476;-65
2021/10/25 10:25:05;;;;;;;14.38;9.10;;;538.20;1049.60;;;;;;4817489;29;20038;-58
2021/10/25 10:27:31;;;;;;;22.52;8.55;;;512.40;1075.20;;;;;;4810071;29;20092;-58
2021/10/25 10:29:59;;;;;;;12.93;7.78;;;486.60;1152.00;;;;;;4790878;30;20035;-59
2021/10/25 10:32:27;;;;;;;18.65;9.77;;;460.80;1305.60;;;;;;4790587;30;20031;-59
2021/10/25 10:34:54;;;;;;;15.35;8.23;;;435.70;1305.60;;;;;;4790633;30;20035;-59
2021/10/25 10:37:24;;;;;;;11.98;8.02;;;410.50;1305.60;;;;;;4790454;30;20049;-59
2021/10/25 10:40:07;;;;;;;24.52;10.77;;;410.10;1356.80;;;;;;4790564;30;20143;-58
2021/10/25 10:42:38;;;;;;;14.38;8.20;;;409.90;1382.40;;;;;;4790940;30;20038;-57
2021/10/25 10:45:09;;;;;;;13.13;8.50;;;409.70;1433.60;;;;;;4791160;30;20043;-57
2021/10/25 10:47:43;;;;;;;14.93;8.35;;;409.60;1587.20;;;;;;4791436;30;20039;-57
2021/10/25 10:50:21;;;;;;;14.32;8.60;;;409.60;1408.00;;;;;;4804617;29;20038;-63
2021/10/25 10:53:12;;;;;;;16.45;10.18;;;384.80;1408.00;;;;;;4809064;29;20050;-57
2021/10/25 10:55:42;;;;;;;18.88;10.00;;;384.80;1433.60;;;;;;4809200;29;20435;-59
2021/10/25 11:00:44;;;;;;;17.15;8.40;;;384.80;1408.00;;;;;;4808798;29;20066;-64
2021/10/25 11:03:23;;;;;;;15.48;9.27;;;384.80;1408.00;;;;;;4809213;29;20023;-57
2021/10/25 11:06:10;;;;;;;14.23;8.50;;;384.60;1433.60;;;;;;4809215;29;20437;-58
2021/10/25 11:08:39;;;;;;;16.38;9.40;;;384.50;1433.60;;;;;;4809005;29;20035;-59
2021/10/25 11:11:06;;;;;;;24.63;9.93;;;384.50;1433.60;;;;;;4808646;29;20060;-57
2021/10/25 11:13:44;;;;;;;14.77;9.52;;;384.50;1459.20;;;;;;4808797;29;20058;-56
2021/10/25 11:16:16;;;;;;;12.50;7.57;;;384.40;1459.20;;;;;;4807825;29;20118;-60
2021/10/25 11:18:48;;;;;;;18.42;10.25;;;384.40;1484.80;;;;;;4815709;29;20023;-59
2021/10/25 11:21:22;;;;;;;17.35;9.10;;;384.30;1459.20;;;;;;4812227;29;20135;-57
2021/10/25 11:23:55;;;;;;;15.43;10.25;;;384.30;1459.20;;;;;;4814489;29;20027;-58
2021/10/25 11:26:27;;;;;;;36.70;17.48;;;384.30;1459.20;;;;;;4813959;29;20388;-57
2021/10/25 11:29:03;;;;;;;23.75;14.50;;;384.30;1459.20;;;;;;4816349;29;20436;-60
2021/10/25 11:31:51;;;;;;;49.80;26.63;;;384.30;1459.20;;;;;;4816239;29;20027;-57
2021/10/25 11:34:24;;;;;;;17.25;11.57;;;384.30;1459.20;;;;;;4813133;29;20015;-58
2021/10/25 11:37:05;;;;;;;;;;;384.30;1433.60;;;;;;4798386;29;20637;-58
2021/10/25 11:39:44;;;;;;;18.08;9.25;;;384.20;1459.20;;;;;;4813679;29;19930;-58
2021/10/25 11:42:13;;;;;;;26.20;17.98;;;384.20;1433.60;;;;;;4807209;29;20444;-58
2021/10/25 11:44:41;;;;;;;15.20;11.40;;;384.20;1459.20;;;;;;4807101;29;20066;-58
2021/10/25 11:47:38;;;;;;;18.45;13.13;;;384.20;1510.40;;;;;;4807096;29;20106;-58
2021/10/25 11:50:26;;;;;;;14.98;10.27;;;384.30;1484.80;;;;;;4807354;29;20118;-59
2021/10/25 11:52:58;;;;;;;30.38;8.23;;;384.30;1484.80;;;;;;4806764;29;20134;-57
2021/10/25 11:55:33;;;;;;;26.80;7.23;;;384.50;1433.60;;;;;;4806950;29;20031;-58
2021/10/25 11:58:03;;;;;;;13.50;8.38;;;384.70;1408.00;;;;;;4807507;29;20109;-69
2021/10/25 12:00:34;;;;;;;17.52;8.80;;;409.90;1408.00;;;;;;4807021;29;20524;-68
2021/10/25 12:03:14;;;;;;;19.38;8.10;;;435.90;1280.00;;;;;;4807271;29;20477;-69
2021/10/25 12:05:40;;;;;;;20.40;7.93;;;435.90;1305.60;;;;;;4806755;29;20057;-69
2021/10/25 12:08:11;;;;;;;10.05;6.60;;;436.10;1254.40;;;;;;4807163;29;20076;-68
2021/10/25 12:10:38;;;;;;;11.13;6.65;;;435.70;1254.40;;;;;;4806880;29;20027;-68
2021/10/25 12:13:06;;;;;;;13.70;6.10;;;435.20;1280.00;;;;;;4807093;29;20121;-68
2021/10/25 12:15:35;;;;;;;15.23;6.90;;;410.20;1331.20;;;;;;4806583;29;20102;-70
2021/10/25 12:18:04;;;;;;;22.30;7.75;;;410.10;1356.80;;;;;;4806876;29;20023;-68
2021/10/25 12:20:37;;;;;;;13.82;7.25;;;409.80;1382.40;;;;;;4806767;29;20420;-69
2021/10/25 12:23:12;;;;;;;13.10;7.83;;;409.70;1382.40;;;;;;4790615;29;20388;-69
2021/10/25 12:25:39;;;;;;;14.60;7.60;;;409.60;1408.00;;;;;;4806680;29;20054;-69
2021/10/25 12:28:09;;;;;;;17.77;7.55;;;384.90;1408.00;;;;;;4806993;29;20031;-68
2021/10/25 12:30:36;;;;;;;18.20;7.70;;;384.90;1382.40;;;;;;4806672;29;20092;-67
2021/10/25 12:33:03;;;;;;;15.18;6.45;;;384.90;1382.40;;;;;;4801391;29;20441;-68
2021/10/25 12:35:49;;;;;;;15.85;7.40;;;384.90;1356.80;;;;;;4800493;29;20031;-68
2021/10/25 12:38:22;;;;;;;14.85;6.40;;;384.80;1356.80;;;;;;4807039;29;20109;-68
2021/10/25 12:40:52;;;;;;;14.57;6.90;;;384.90;1356.80;;;;;;4806559;29;20030;-68
2021/10/25 12:43:19;;;;;;;9.43;6.10;;;409.60;1408.00;;;;;;4806907;29;20106;-68
2021/10/25 12:45:59;;;;;;;16.30;6.72;;;410.00;1382.40;;;;;;4806937;29;20092;-67
2021/10/25 12:48:26;;;;;;;10.25;6.70;;;410.10;1356.80;;;;;;4806742;29;20029;-67
2021/10/25 12:51:01;;;;;;;13.13;6.65;;;410.10;1356.80;;;;;;4806482;29;20106;-68
2021/10/25 12:53:30;;;;;;;11.88;6.15;;;410.00;1356.80;;;;;;4805254;29;20027;-68
2021/10/25 12:55:57;;;;;;;11.73;6.78;;;410.10;1356.80;;;;;;4806760;29;20046;-67
2021/10/25 12:58:24;;;;;;;17.45;8.43;;;410.10;1382.40;;;;;;4804141;29;20562;-67
2021/10/25 13:00:50;;;;;;;24.75;13.52;;;410.20;1356.80;;;;;;4806934;29;20473;-61
2021/10/25 13:03:16;;;;;;;33.58;19.63;;;410.50;1305.60;;;;;;4806972;29;20061;-67
2021/10/25 13:05:49;;;;;;;27.15;10.15;;;435.30;1280.00;;;;;;4807153;29;20114;-68
2021/10/25 13:08:15;;;;;;;46.13;15.85;;;461.00;1203.20;;;;;;4806531;29;20027;-68
2021/10/25 13:10:43;;;;;;;16.33;7.88;;;486.40;1152.00;;;;;;4806384;29;20035;-68
2021/10/25 13:13:16;;;;;;;12.82;5.47;;;486.80;1100.80;;;;;;4805499;29;20038;-68
2021/10/25 13:15:44;;;;;;;18.10;7.47;;;486.90;1100.80;;;;;;4805895;29;20031;-68
2021/10/25 13:18:11;;;;;;;44.65;16.67;;;486.90;1100.80;;;;;;4806376;29;20034;-69
2021/10/25 13:20:40;;;;;;;55.63;19.33;;;487.30;1049.60;;;;;;4806538;29;20035;-69
2021/10/25 13:23:11;;;;;;;34.55;12.93;;;512.00;1049.60;;;;;;4806482;29;20459;-69
2021/10/25 13:25:37;;;;;;;49.20;18.08;;;512.30;1049.60;;;;;;4806472;29;20066;-69
2021/10/25 13:28:05;;;;;;;42.90;16.50;;;512.10;1049.60;;;;;;4805273;29;20106;-69
2021/10/25 13:30:31;;;;;;;16.58;8.52;;;512.40;1049.60;;;;;;4805908;29;20041;-68
2021/10/25 13:32:58;;;;;;;34.50;15.25;;;512.30;1024.00;;;;;;4806580;29;20031;-68
2021/10/25 13:35:24;;;;;;;58.80;28.08;;;512.30;1049.60;;;;;;4806708;29;20084;-69
2021/10/25 13:37:52;;;;;;;11.00;5.25;;;512.30;1024.00;;;;;;4805651;29;20396;-69
2021/10/25 13:40:20;;;;;;;10.02;5.35;;;512.20;1024.00;;;;;;4806430;29;20439;-69
2021/10/25 13:42:47;;;;;;;10.80;6.90;;;512.40;1024.00;;;;;;4806388;29;20465;-69
2021/10/25 13:45:13;;;;;;;12.13;6.43;;;512.40;998.40;;;;;;4805242;29;20386;-69
2021/10/25 13:47:39;;;;;;;14.20;6.47;;;512.20;1024.00;;;;;;4806245;29;20027;-69
2021/10/25 13:50:05;;;;;;;18.63;14.00;;;512.30;1024.00;;;;;;4806512;29;20548;-68
2021/10/25 13:52:31;;;;;;;13.00;6.05;;;512.00;1049.60;;;;;;4806239;29;20054;-69
2021/10/25 13:54:57;;;;;;;10.95;7.07;;;487.20;1024.00;;;;;;4806326;29;20172;-68
2021/10/25 13:57:26;;;;;;;13.82;6.72;;;487.20;1024.00;;;;;;4804844;29;20396;-69
2021/10/25 13:59:53;;;;;;;9.25;5.90;;;487.00;1049.60;;;;;;4806258;29;20047;-68
2021/10/25 14:02:27;;;;;;;12.88;6.13;;;486.70;1075.20;;;;;;4806311;29;20026;-69
2021/10/25 14:04:56;;;;;;;20.10;6.30;;;461.50;1100.80;;;;;;4806223;29;20035;-69
2021/10/25 14:07:24;;;;;;;14.63;6.95;;;461.00;1152.00;;;;;;4806235;29;20027;-68
2021/10/25 14:09:55;;;;;;;13.88;7.05;;;435.90;1177.60;;;;;;4806234;29;20027;-69
2021/10/25 14:12:25;;;;;;;14.52;7.88;;;435.60;1203.20;;;;;;4806368;29;20020;-69
2021/10/25 14:14:52;;;;;;;20.70;10.13;;;435.30;1203.20;;;;;;4806095;29;20064;-69
2021/10/25 14:17:19;;;;;;;16.48;9.77;;;435.20;1203.20;;;;;;4806514;29;20409;-68
2021/10/25 14:19:45;;;;;;;14.40;7.75;;;410.40;1228.80;;;;;;4805815;29;20039;-69
2021/10/25 14:22:11;;;;;;;10.30;6.50;;;410.30;1254.40;;;;;;4806153;29;20110;-68
2021/10/25 14:24:39;;;;;;;12.73;7.15;;;410.10;1254.40;;;;;;4806091;29;20027;-68
2021/10/25 14:27:05;;;;;;;18.88;7.10;;;410.10;1254.40;;;;;;4806096;29;20113;-68
2021/10/25 14:29:31;;;;;;;17.48;8.48;;;409.90;1254.40;;;;;;4805899;29;20039;-68
2021/10/25 14:31:57;;;;;;;19.73;9.63;;;409.80;1254.40;;;;;;4806093;29;20034;-68
2021/10/25 14:34:23;;;;;;;13.65;7.68;;;409.70;1280.00;;;;;;4806034;29;20545;-68
2021/10/25 14:36:52;;;;;;;12.15;6.55;;;409.70;1280.00;;;;;;4806015;29;20143;-69
2021/10/25 14:39:22;;;;;;;14.20;7.10;;;409.60;1305.60;;;;;;4805643;29;20039;-68
2021/10/25 14:42:08;;;;;;;11.60;6.95;;;384.80;1280.00;;;;;;4805916;29;20023;-68
2021/10/25 14:44:38;;;;;;;11.07;5.95;;;384.70;1280.00;;;;;;4805995;29;20412;-69
2021/10/25 14:56:05;;;;;;;23.45;11.48;;;384.40;1331.20;;;;;;4771848;29;20027;-68
2021/10/25 14:58:04;;;;;;;22.58;10.95;;;384.20;1331.20;;;;;;4805388;29;20211;-68
2021/10/25 15:00:30;;;;;;;24.15;13.35;;;384.20;1331.20;;;;;;4809172;29;20096;-68
2021/10/25 15:02:56;;;;;;;30.55;17.83;;;384.10;1356.80;;;;;;4809331;29;20027;-68
2021/10/25 15:05:22;;;;;;;34.05;18.05;;;384.00;1356.80;;;;;;4809177;29;20484;-68